»·PEaware :: N124HF KSMX-KBFL

N124HF :: KSMX-KBFL

FLIGHT INFORMATION

Flight Status: Arrived
Operator: Privately registered:
United States
More flights under this callsign
Pilot: Steven Duran D. (32271)
Aircraft: CESSNA 172 SKYHAWK
(C172)
More flights by this aircraft type
Origin: KSMX Santa Maria Pub/Capt Hancock
United States
Destination: KBFL Meadows
United States
More flights between these airports :: More routes between these airports
Route: FLW
File this flight plan on PilotEdge
Remarks:
Altitude:
(Current/Filed)
7,500ft
Speed:
(Current/Filed)
108kts
Departed: 01-Nov-20 02:19 PM
Arrived: 01-Nov-20 03:10 PM
Distance/Time
Traveled:
76nm/0:51
Distance/Time
To Go:
Arrived

Flight Plot

Page will automatically refresh every two minutes.


Map Options




Map Legend


Flown Route
Filed Route
Departure Airport
Arrival Airport
Navaid (VOR, NDB)
Fix

Horizontal Profiles

Position Reports

Time Latitude Longitude Heading Altitude Ground
Speed
01-Nov-20 14:03 34.896517 -120.445534 316 264ft 0kts
01-Nov-20 14:03 34.896518 -120.445535 316 264ft 0kts
01-Nov-20 14:04 34.896521 -120.445538 316 264ft 0kts
01-Nov-20 14:05 34.896523 -120.445540 316 264ft 0kts
01-Nov-20 14:06 34.896525 -120.445543 316 264ft 0kts
01-Nov-20 14:07 34.896528 -120.445546 316 264ft 0kts
01-Nov-20 14:08 34.896530 -120.445548 316 264ft 0kts
01-Nov-20 14:09 34.896532 -120.445551 316 264ft 0kts
01-Nov-20 14:10 34.896534 -120.445554 316 264ft 0kts
01-Nov-20 14:11 34.896538 -120.445558 316 264ft 0kts
01-Nov-20 14:12 34.896443 -120.446412 313 264ft 13kts
01-Nov-20 14:13 34.895845 -120.447035 136 264ft 13kts
01-Nov-20 14:14 34.893669 -120.445205 167 264ft 14kts
01-Nov-20 14:15 34.893472 -120.445034 295 264ft 0kts
01-Nov-20 14:16 34.893455 -120.445235 211 264ft 0kts
01-Nov-20 14:17 34.893151 -120.446278 316 264ft 9kts
01-Nov-20 14:18 34.906819 -120.461440 319 968ft 83kts
01-Nov-20 14:19 34.928348 -120.464132 19 2005ft 87kts
01-Nov-20 14:20 34.942935 -120.443357 80 3002ft 85kts
01-Nov-20 14:21 34.944438 -120.415635 89 3950ft 80kts
01-Nov-20 14:22 34.945984 -120.388299 86 4787ft 81kts
01-Nov-20 14:23 34.949875 -120.360851 86 5552ft 82kts
01-Nov-20 14:24 34.953195 -120.333562 86 6267ft 80kts
01-Nov-20 14:25 34.954392 -120.305617 88 6595ft 93kts
01-Nov-20 14:26 34.957465 -120.275685 71 6503ft 90kts
01-Nov-20 14:27 34.968848 -120.246888 70 6502ft 98kts
01-Nov-20 14:28 34.979408 -120.215516 71 6497ft 100kts
01-Nov-20 14:29 34.989837 -120.183673 71 6496ft 101kts
01-Nov-20 14:30 35.000266 -120.151698 71 6496ft 101kts
01-Nov-20 14:31 35.010665 -120.119771 71 6496ft 101kts
01-Nov-20 14:32 35.021088 -120.087732 71 6495ft 101kts
01-Nov-20 14:33 35.031489 -120.055729 71 6495ft 101kts
01-Nov-20 14:34 35.041578 -120.024652 71 6489ft 102kts
01-Nov-20 14:35 35.052014 -119.992482 71 6490ft 101kts
01-Nov-20 14:36 35.062238 -119.960914 71 6487ft 101kts
01-Nov-20 14:37 35.072741 -119.928462 71 6488ft 100kts
01-Nov-20 14:38 35.082984 -119.896759 71 6487ft 100kts
01-Nov-20 14:39 35.093380 -119.864954 68 6488ft 101kts
01-Nov-20 14:40 35.106439 -119.834323 66 6491ft 101kts
01-Nov-20 14:41 35.119409 -119.803790 66 6493ft 101kts
01-Nov-20 14:42 35.132483 -119.773092 66 6493ft 101kts
01-Nov-20 14:43 35.145542 -119.742411 66 6495ft 101kts
01-Nov-20 14:44 35.158496 -119.711959 66 6526ft 100kts
01-Nov-20 14:45 35.171434 -119.681512 66 6533ft 101kts
01-Nov-20 14:46 35.184408 -119.650839 66 6534ft 101kts
01-Nov-20 14:47 35.197379 -119.620302 66 6537ft 101kts
01-Nov-20 14:48 35.210354 -119.589690 66 6538ft 101kts
01-Nov-20 14:49 35.223404 -119.558875 66 6539ft 102kts
01-Nov-20 14:50 35.236398 -119.528133 66 6547ft 101kts
01-Nov-20 14:51 35.249394 -119.497352 66 6547ft 102kts
01-Nov-20 14:52 35.262581 -119.467709 63 6186ft 97kts
01-Nov-20 14:53 35.275313 -119.438976 63 5469ft 93kts
01-Nov-20 14:54 35.286998 -119.411113 68 4781ft 93kts
01-Nov-20 14:55 35.297850 -119.382505 65 4119ft 91kts
01-Nov-20 14:56 35.309269 -119.354530 63 3607ft 92kts
01-Nov-20 14:57 35.320675 -119.326575 64 3136ft 92kts
01-Nov-20 14:58 35.333214 -119.299050 60 2616ft 92kts
01-Nov-20 14:59 35.344458 -119.271384 66 1935ft 86kts
01-Nov-20 15:00 35.352882 -119.245836 66 1596ft 83kts
01-Nov-20 15:01 35.363209 -119.220085 58 1517ft 88kts
01-Nov-20 15:02 35.376523 -119.192496 54 1514ft 100kts
01-Nov-20 15:03 35.390576 -119.162870 62 1534ft 102kts
01-Nov-20 15:04 35.403101 -119.130928 57 1472ft 106kts
01-Nov-20 15:05 35.417819 -119.099145 52 1448ft 108kts
01-Nov-20 15:06 35.420307 -119.067548 138 1261ft 112kts
01-Nov-20 15:07 35.414891 -119.042751 15 1143ft 81kts
01-Nov-20 15:08 35.429681 -119.054639 310 553ft 53kts
01-Nov-20 15:09 35.434944 -119.059885 53 510ft 6kts
01-Nov-20 15:10 35.435172 -119.059586 46 510ft 0kts

Navigation Log

Ident Type
Flight plan parsing failed, navigation log unavailable